Big Rapids, MI

11:59 PM EST on December 10, 2017 (GMT -0500)
Roben-Hood

Weather History for KRQB - April, 2013

Change the Weather History Date:

Sunday, April 28, 2013

  Actual Average Record
Temperature  
Mean Temperature 54 °F -  
Max Temperature 67 °F 60 °F 78 °F (1986)
Min Temperature 41 °F 37 °F 21 °F (2006)
Degree Days  
Heating Degree Days 11    
Growing Degree Days 4 (Base 50)    
Moisture  
Dew Point 42 °F    
Average Humidity 65    
Maximum Humidity 92    
Minimum Humidity 40    
Precipitation  
Precipitation 0.00 in - - ()
Sea Level Pressure  
Sea Level Pressure 29.93 in    
Wind  
Wind Speed 2 mph (ESE)    
Max Wind Speed 12 mph    
Max Gust Speed 18 mph    
Visibility 10 miles    
Events      
Averages and records for this station are not official NWS values.
T = Trace of Precipitation, MM = Missing Value Source: NWS Daily Summary

Daily Weather History Graph

Daily Weather History Graph

Search for Another Location

Airport or City:

Trip Planner

Search our weather history database for the weather conditions in past years. The results will help you decide how hot, cold, wet, or windy it might be!

Date:

Astronomy

Apr. 28, 2013 Rise Set
Actual Time 6:38 AM EDT 8:41 PM EDT
Civil Twilight 6:07 AM EDT 9:12 PM EDT
Nautical Twilight 5:28 AM EDT 9:51 PM EDT
Astronomical Twilight 4:46 AM EDT 10:33 PM EDT
Moon No Moon Rise 8:50 AM EDT (4/28)
Length of Visible Light 15h 05m
Length of Day
14h 03m
Waning Gibbous, 89% of the Moon is Illuminated
Apr 28
Waning Gibbous
May 2
Last Quarter
May 9
New
May 18
First Quarter
May 25
Full

Hourly Weather History & Observations

Time (EDT) Temp. Dew Point Humidity Pressure Visibility Wind Dir Wind Speed Gust Speed Precip Events Conditions
12:15 AM 45.7 °F 37.8 °F 74% 30.07 in 10.0 mi Calm Calm - N/A   Clear
12:35 AM 44.8 °F 37.8 °F 76% 30.07 in 10.0 mi Calm Calm - N/A   Clear
12:55 AM 42.8 °F 39.4 °F 88% 30.06 in 10.0 mi Calm Calm - N/A   Clear
1:15 AM 43.7 °F 39.2 °F 84% 30.06 in 10.0 mi Calm Calm - N/A   Clear
1:35 AM 43.3 °F 39.2 °F 85% 30.06 in 10.0 mi Calm Calm - N/A   Clear
1:55 AM 42.3 °F 40.1 °F 92% 30.06 in 10.0 mi Calm Calm - N/A   Clear
2:15 AM 41.0 °F 38.8 °F 92% 30.05 in 10.0 mi Calm Calm - N/A   Clear
2:35 AM 41.9 °F 39.0 °F 90% 30.04 in 10.0 mi Calm Calm - N/A   Clear
2:54 AM 41.4 °F 39.2 °F 92% 30.03 in 10.0 mi Calm Calm - N/A   Clear
3:15 AM 41.0 °F 38.7 °F 91% 30.03 in 10.0 mi Calm Calm - N/A   Scattered Clouds
3:35 AM 41.9 °F 39.4 °F 91% 30.02 in 10.0 mi Calm Calm - N/A   Mostly Cloudy
3:54 AM 42.6 °F 39.6 °F 89% 30.01 in 10.0 mi Calm Calm - N/A   Overcast
4:15 AM 43.3 °F 40.3 °F 89% 30.01 in 10.0 mi Calm Calm - N/A   Overcast
4:35 AM 43.9 °F 41.0 °F 90% 30.01 in 10.0 mi Calm Calm - N/A   Overcast
4:54 AM 44.6 °F 41.4 °F 88% 30.01 in 10.0 mi Calm Calm - N/A   Overcast
5:15 AM 44.8 °F 41.7 °F 89% 30.00 in 10.0 mi Calm Calm - N/A   Overcast
5:35 AM 45.1 °F 41.9 °F 88% 30.00 in 10.0 mi Calm Calm - N/A   Overcast
5:54 AM 45.5 °F 42.4 °F 89% 29.99 in 10.0 mi Calm Calm - N/A   Overcast
6:15 AM 45.7 °F 42.4 °F 88% 29.99 in 10.0 mi Calm Calm - N/A   Overcast
6:35 AM 46.4 °F 43.2 °F 88% 29.98 in 10.0 mi Calm Calm - N/A   Overcast
6:54 AM 46.0 °F 42.8 °F 88% 29.98 in 10.0 mi Calm Calm - N/A   Overcast
7:15 AM 46.4 °F 42.8 °F 87% 29.98 in 10.0 mi Calm Calm - N/A   Overcast
7:35 AM 47.3 °F 43.7 °F 87% 29.97 in 10.0 mi Calm Calm - N/A   Overcast
7:54 AM 48.2 °F 43.3 °F 83% 29.98 in 10.0 mi Calm Calm - N/A   Overcast
8:15 AM 49.3 °F 40.8 °F 73% 29.97 in 10.0 mi Calm Calm - N/A   Overcast
8:35 AM 50.0 °F 40.5 °F 70% 29.97 in 10.0 mi Calm Calm - N/A   Overcast
9:15 AM 52.5 °F 39.0 °F 60% 29.96 in 10.0 mi WNW 3.5 mph - N/A   Overcast
9:35 AM 53.4 °F 39.7 °F 60% 29.96 in 10.0 mi Calm Calm - N/A   Overcast
9:55 AM 54.9 °F 36.5 °F 50% 29.96 in 10.0 mi East 5.8 mph - N/A   Overcast
10:15 AM 55.8 °F 35.4 °F 46% 29.96 in 10.0 mi ESE 6.9 mph - N/A   Overcast
10:35 AM 56.3 °F 35.6 °F 46% 29.95 in 10.0 mi SE 5.8 mph - N/A   Overcast
10:55 AM 57.2 °F 35.6 °F 44% 29.95 in 10.0 mi East 5.8 mph - N/A   Overcast
11:15 AM 57.4 °F 35.4 °F 44% 29.94 in 10.0 mi SSE 4.6 mph - N/A   Overcast
11:35 AM 58.5 °F 35.6 °F 42% 29.94 in 10.0 mi Calm Calm - N/A   Overcast
11:55 AM 60.1 °F 37.0 °F 42% 29.93 in 10.0 mi SSE 4.6 mph - N/A   Overcast
12:15 PM 61.0 °F 37.6 °F 42% 29.93 in 10.0 mi ESE 3.5 mph - N/A   Overcast
12:35 PM 62.8 °F 38.3 °F 40% 29.92 in 10.0 mi NE 5.8 mph - N/A   Overcast
12:55 PM 64.8 °F 40.8 °F 42% 29.90 in 10.0 mi SSE 4.6 mph - N/A   Mostly Cloudy
1:15 PM 66.9 °F 43.3 °F 42% 29.90 in 10.0 mi ESE 5.8 mph - N/A   Mostly Cloudy
1:35 PM 66.2 °F 43.9 °F 44% 29.89 in 10.0 mi ESE 8.1 mph - N/A   Overcast
1:55 PM 66.0 °F 43.2 °F 43% 29.88 in 10.0 mi ESE 5.8 mph - N/A   Overcast
2:15 PM 67.1 °F 43.3 °F 42% 29.88 in 10.0 mi SE 6.9 mph 16.1 mph N/A   Overcast
2:35 PM 66.2 °F 42.6 °F 42% 29.88 in 10.0 mi SE 10.4 mph 18.4 mph N/A   Overcast
2:55 PM 65.7 °F 43.0 °F 44% 29.87 in 10.0 mi SE 6.9 mph - N/A   Overcast
3:15 PM 64.8 °F 43.7 °F 46% 29.87 in 10.0 mi ESE 6.9 mph - N/A   Overcast
3:35 PM 64.4 °F 43.9 °F 47% 29.87 in 10.0 mi ESE 6.9 mph - N/A   Overcast
3:55 PM 64.0 °F 43.7 °F 48% 29.87 in 10.0 mi Calm Calm - N/A   Overcast
4:15 PM 64.8 °F 43.7 °F 46% 29.86 in 10.0 mi ESE 5.8 mph - N/A   Overcast
4:35 PM 66.7 °F 44.1 °F 44% 29.84 in 10.0 mi East 8.1 mph - N/A   Overcast
4:55 PM 66.0 °F 43.7 °F 44% 29.83 in 10.0 mi ESE 4.6 mph - N/A   Scattered Clouds
5:14 PM 66.2 °F 43.5 °F 44% 29.83 in 10.0 mi SE 6.9 mph - N/A   Scattered Clouds
5:35 PM 66.2 °F 43.5 °F 44% 29.83 in 10.0 mi SE 5.8 mph - N/A   Mostly Cloudy
5:55 PM 65.3 °F 43.7 °F 46% 29.83 in 10.0 mi ESE 4.6 mph - N/A   Overcast
6:14 PM 65.1 °F 44.1 °F 46% 29.83 in 10.0 mi East 6.9 mph - N/A   Overcast
6:35 PM 64.6 °F 44.2 °F 48% 29.83 in 10.0 mi ESE 3.5 mph - N/A   Overcast
6:55 PM 64.4 °F 44.4 °F 48% 29.83 in 10.0 mi ENE 8.1 mph - N/A   Overcast
7:14 PM 63.9 °F 44.6 °F 50% 29.83 in 10.0 mi East 3.5 mph - N/A   Overcast
7:35 PM 63.5 °F 45.0 °F 51% 29.83 in 10.0 mi ESE 6.9 mph - N/A   Overcast
7:55 PM 62.6 °F 47.1 °F 57% 29.83 in 10.0 mi ESE 4.6 mph - N/A   Overcast
8:14 PM 62.2 °F 46.6 °F 57% 29.83 in 10.0 mi ESE 9.2 mph - N/A   Overcast
8:35 PM 61.2 °F 48.2 °F 62% 29.83 in 10.0 mi ESE 9.2 mph - N/A   Overcast
8:55 PM 60.3 °F 49.1 °F 67% 29.84 in 10.0 mi ESE 8.1 mph - N/A   Overcast
9:14 PM 59.5 °F 49.3 °F 69% 29.84 in 10.0 mi ESE 10.4 mph - N/A   Overcast
9:35 PM 59.0 °F 49.6 °F 71% 29.84 in 10.0 mi SE 9.2 mph - N/A   Overcast
9:55 PM 58.1 °F 49.6 °F 73% 29.84 in 10.0 mi ESE 11.5 mph - N/A   Overcast
10:15 PM 57.9 °F 50.0 °F 75% 29.85 in 10.0 mi East 9.2 mph - N/A   Overcast
10:35 PM 57.6 °F 49.6 °F 75% 29.85 in 10.0 mi ESE 9.2 mph - N/A   Overcast
10:55 PM 57.2 °F 49.1 °F 74% 29.85 in 10.0 mi ESE 8.1 mph - N/A   Overcast
11:15 PM 56.8 °F 48.6 °F 74% 29.85 in 10.0 mi East 6.9 mph - N/A   Overcast
11:35 PM 56.3 °F 48.7 °F 76% 29.85 in 10.0 mi ESE 4.6 mph - N/A   Overcast
11:55 PM 56.3 °F 48.7 °F 76% 29.85 in 10.0 mi ESE 5.8 mph - N/A   Overcast